sensor_id;sensor_type;location;lat;lon;timestamp;pressure;altitude;pressure_sealevel;temperature;humidity
10718;BME280;13513;42.700;23.124;2022-08-24T00:00:26;92828.58;;;19.11;100.00
10718;BME280;13513;42.700;23.124;2022-08-24T00:02:56;92825.48;;;19.17;100.00
10718;BME280;13513;42.700;23.124;2022-08-24T00:05:27;92824.56;;;19.24;100.00
10718;BME280;13513;42.700;23.124;2022-08-24T00:07:58;92829.33;;;19.27;100.00
10718;BME280;13513;42.700;23.124;2022-08-24T00:10:29;92822.98;;;19.10;100.00
10718;BME280;13513;42.700;23.124;2022-08-24T00:12:59;92826.08;;;19.14;100.00
10718;BME280;13513;42.700;23.124;2022-08-24T00:15:29;92825.66;;;19.21;100.00
10718;BME280;13513;42.700;23.124;2022-08-24T00:17:59;92819.38;;;19.28;100.00
10718;BME280;13513;42.700;23.124;2022-08-24T00:20:31;92820.30;;;19.21;100.00
10718;BME280;13513;42.700;23.124;2022-08-24T00:23:01;92819.97;;;19.11;100.00
10718;BME280;13513;42.700;23.124;2022-08-24T00:25:31;92822.41;;;19.10;100.00
10718;BME280;13513;42.700;23.124;2022-08-24T00:28:03;92816.03;;;18.95;100.00
10718;BME280;13513;42.700;23.124;2022-08-24T00:30:35;92822.84;;;18.90;100.00
10718;BME280;13513;42.700;23.124;2022-08-24T00:33:06;92819.72;;;18.72;100.00
10718;BME280;13513;42.700;23.124;2022-08-24T00:35:36;92827.16;;;18.89;100.00
10718;BME280;13513;42.700;23.124;2022-08-24T00:38:09;92823.48;;;18.85;100.00
10718;BME280;13513;42.700;23.124;2022-08-24T00:40:41;92824.13;;;18.79;100.00
10718;BME280;13513;42.700;23.124;2022-08-24T00:43:13;92829.48;;;18.93;100.00
10718;BME280;13513;42.700;23.124;2022-08-24T00:45:57;92821.11;;;18.83;100.00
10718;BME280;13513;42.700;23.124;2022-08-24T00:48:24;92824.08;;;18.82;100.00
10718;BME280;13513;42.700;23.124;2022-08-24T00:51:00;92823.30;;;18.81;100.00
10718;BME280;13513;42.700;23.124;2022-08-24T00:53:37;92824.48;;;18.75;100.00
10718;BME280;13513;42.700;23.124;2022-08-24T00:56:13;92827.27;;;18.70;100.00
10718;BME280;13513;42.700;23.124;2022-08-24T00:58:47;92825.66;;;18.69;100.00
10718;BME280;13513;42.700;23.124;2022-08-24T01:01:15;92820.98;;;18.64;100.00
10718;BME280;13513;42.700;23.124;2022-08-24T01:03:46;92828.78;;;18.47;100.00
10718;BME280;13513;42.700;23.124;2022-08-24T01:06:18;92828.18;;;18.36;100.00
10718;BME280;13513;42.700;23.124;2022-08-24T01:08:49;92822.59;;;18.35;100.00
10718;BME280;13513;42.700;23.124;2022-08-24T01:11:22;92826.54;;;18.06;100.00
10718;BME280;13513;42.700;23.124;2022-08-24T01:13:53;92828.39;;;18.08;100.00
10718;BME280;13513;42.700;23.124;2022-08-24T01:16:24;92828.52;;;18.16;100.00
10718;BME280;13513;42.700;23.124;2022-08-24T01:18:58;92831.89;;;18.06;100.00
10718;BME280;13513;42.700;23.124;2022-08-24T01:21:33;92843.16;;;17.73;100.00
10718;BME280;13513;42.700;23.124;2022-08-24T01:24:05;92845.63;;;17.67;100.00
10718;BME280;13513;42.700;23.124;2022-08-24T01:26:41;92842.72;;;17.66;100.00
10718;BME280;13513;42.700;23.124;2022-08-24T01:29:15;92846.73;;;17.66;100.00
10718;BME280;13513;42.700;23.124;2022-08-24T01:31:45;92848.22;;;17.72;100.00
10718;BME280;13513;42.700;23.124;2022-08-24T01:34:16;92849.52;;;17.75;100.00
10718;BME280;13513;42.700;23.124;2022-08-24T01:36:50;92847.69;;;17.73;100.00
10718;BME280;13513;42.700;23.124;2022-08-24T01:39:40;92849.23;;;17.76;100.00
10718;BME280;13513;42.700;23.124;2022-08-24T01:42:07;92854.33;;;17.75;100.00
10718;BME280;13513;42.700;23.124;2022-08-24T01:44:40;92859.55;;;17.48;100.00
10718;BME280;13513;42.700;23.124;2022-08-24T01:47:14;92862.83;;;17.43;100.00
10718;BME280;13513;42.700;23.124;2022-08-24T01:49:46;92862.75;;;17.48;100.00
10718;BME280;13513;42.700;23.124;2022-08-24T01:52:21;92860.74;;;17.37;100.00
10718;BME280;13513;42.700;23.124;2022-08-24T01:54:51;92863.09;;;17.23;100.00
10718;BME280;13513;42.700;23.124;2022-08-24T01:57:24;92865.80;;;17.20;100.00
10718;BME280;13513;42.700;23.124;2022-08-24T01:59:54;92864.99;;;17.20;100.00
10718;BME280;13513;42.700;23.124;2022-08-24T02:02:28;92870.73;;;17.29;100.00
10718;BME280;13513;42.700;23.124;2022-08-24T02:05:00;92865.96;;;17.26;100.00
10718;BME280;13513;42.700;23.124;2022-08-24T02:07:31;92866.24;;;17.27;100.00
10718;BME280;13513;42.700;23.124;2022-08-24T02:10:05;92864.55;;;17.34;100.00
10718;BME280;13513;42.700;23.124;2022-08-24T02:12:37;92862.32;;;17.38;100.00
10718;BME280;13513;42.700;23.124;2022-08-24T02:15:08;92865.17;;;17.47;100.00
10718;BME280;13513;42.700;23.124;2022-08-24T02:17:39;92870.39;;;17.57;100.00
10718;BME280;13513;42.700;23.124;2022-08-24T02:20:11;92875.77;;;17.54;100.00
10718;BME280;13513;42.700;23.124;2022-08-24T02:22:42;92884.36;;;17.51;100.00
10718;BME280;13513;42.700;23.124;2022-08-24T02:25:13;92886.46;;;17.54;100.00
10718;BME280;13513;42.700;23.124;2022-08-24T02:27:44;92888.30;;;17.35;100.00
10718;BME280;13513;42.700;23.124;2022-08-24T02:30:16;92889.47;;;17.48;100.00
10718;BME280;13513;42.700;23.124;2022-08-24T02:32:46;92889.05;;;17.41;100.00
10718;BME280;13513;42.700;23.124;2022-08-24T02:35:18;92893.38;;;17.55;100.00
10718;BME280;13513;42.700;23.124;2022-08-24T02:37:49;92894.88;;;17.61;100.00
10718;BME280;13513;42.700;23.124;2022-08-24T02:40:20;92894.39;;;17.59;100.00
10718;BME280;13513;42.700;23.124;2022-08-24T02:42:51;92900.70;;;17.66;100.00
10718;BME280;13513;42.700;23.124;2022-08-24T02:45:21;92902.23;;;17.72;100.00
10718;BME280;13513;42.700;23.124;2022-08-24T02:47:52;92904.08;;;17.90;100.00
10718;BME280;13513;42.700;23.124;2022-08-24T02:50:21;92901.62;;;17.77;100.00
10718;BME280;13513;42.700;23.124;2022-08-24T02:52:53;92904.58;;;17.76;100.00
10718;BME280;13513;42.700;23.124;2022-08-24T02:55:23;92915.52;;;17.77;100.00
10718;BME280;13513;42.700;23.124;2022-08-24T02:57:52;92914.47;;;17.75;100.00
10718;BME280;13513;42.700;23.124;2022-08-24T03:00:23;92911.33;;;17.89;100.00
10718;BME280;13513;42.700;23.124;2022-08-24T03:02:53;92913.25;;;18.02;100.00
10718;BME280;13513;42.700;23.124;2022-08-24T03:05:23;92915.34;;;18.05;100.00
10718;BME280;13513;42.700;23.124;2022-08-24T03:07:55;92917.63;;;17.96;100.00
10718;BME280;13513;42.700;23.124;2022-08-24T03:10:26;92914.54;;;18.05;100.00
10718;BME280;13513;42.700;23.124;2022-08-24T03:12:57;92920.45;;;18.04;100.00
10718;BME280;13513;42.700;23.124;2022-08-24T03:15:27;92915.49;;;17.95;100.00
10718;BME280;13513;42.700;23.124;2022-08-24T03:17:59;92916.50;;;17.99;100.00
10718;BME280;13513;42.700;23.124;2022-08-24T03:20:30;92923.89;;;17.89;100.00
10718;BME280;13513;42.700;23.124;2022-08-24T03:23:00;92920.39;;;17.91;100.00
10718;BME280;13513;42.700;23.124;2022-08-24T03:25:31;92916.50;;;17.99;100.00
10718;BME280;13513;42.700;23.124;2022-08-24T03:28:02;92915.92;;;18.02;100.00
10718;BME280;13513;42.700;23.124;2022-08-24T03:30:33;92916.69;;;18.05;100.00
10718;BME280;13513;42.700;23.124;2022-08-24T03:33:04;92908.91;;;18.06;100.00
10718;BME280;13513;42.700;23.124;2022-08-24T03:35:35;92914.50;;;18.07;100.00
10718;BME280;13513;42.700;23.124;2022-08-24T03:38:06;92920.45;;;18.04;100.00
10718;BME280;13513;42.700;23.124;2022-08-24T03:40:38;92928.30;;;18.14;100.00
10718;BME280;13513;42.700;23.124;2022-08-24T03:43:10;92923.33;;;18.08;100.00
10718;BME280;13513;42.700;23.124;2022-08-24T03:45:40;92923.80;;;18.12;100.00
10718;BME280;13513;42.700;23.124;2022-08-24T03:48:11;92925.67;;;18.12;100.00
10718;BME280;13513;42.700;23.124;2022-08-24T03:50:43;92927.25;;;18.13;100.00
10718;BME280;13513;42.700;23.124;2022-08-24T03:53:14;92926.63;;;18.02;100.00
10718;BME280;13513;42.700;23.124;2022-08-24T03:55:44;92925.08;;;17.99;100.00
10718;BME280;13513;42.700;23.124;2022-08-24T03:58:14;92926.84;;;17.87;100.00
10718;BME280;13513;42.700;23.124;2022-08-24T04:00:45;92925.36;;;17.79;100.00
10718;BME280;13513;42.700;23.124;2022-08-24T04:03:15;92926.20;;;17.77;100.00
10718;BME280;13513;42.700;23.124;2022-08-24T04:05:46;92927.76;;;17.62;100.00
10718;BME280;13513;42.700;23.124;2022-08-24T04:08:17;92929.86;;;17.65;100.00
10718;BME280;13513;42.700;23.124;2022-08-24T04:10:48;92927.66;;;17.69;100.00
10718;BME280;13513;42.700;23.124;2022-08-24T04:13:19;92931.88;;;17.73;100.00
10718;BME280;13513;42.700;23.124;2022-08-24T04:15:50;92937.70;;;17.77;100.00
10718;BME280;13513;42.700;23.124;2022-08-24T04:18:21;92929.27;;;17.86;100.00
10718;BME280;13513;42.700;23.124;2022-08-24T04:20:52;92926.19;;;17.95;100.00
10718;BME280;13513;42.700;23.124;2022-08-24T04:23:21;92924.80;;;18.00;100.00
10718;BME280;13513;42.700;23.124;2022-08-24T04:25:52;92924.52;;;17.99;100.00
10718;BME280;13513;42.700;23.124;2022-08-24T04:28:23;92926.77;;;17.92;100.00
10718;BME280;13513;42.700;23.124;2022-08-24T04:30:54;92932.59;;;18.13;100.00
10718;BME280;13513;42.700;23.124;2022-08-24T04:33:24;92937.55;;;18.22;100.00
10718;BME280;13513;42.700;23.124;2022-08-24T04:35:55;92932.54;;;18.34;100.00
10718;BME280;13513;42.700;23.124;2022-08-24T04:38:25;92934.09;;;18.53;100.00
10718;BME280;13513;42.700;23.124;2022-08-24T04:40:56;92928.70;;;18.72;100.00
10718;BME280;13513;42.700;23.124;2022-08-24T04:43:27;92932.27;;;18.81;100.00
10718;BME280;13513;42.700;23.124;2022-08-24T04:46:03;92935.31;;;19.04;100.00
10718;BME280;13513;42.700;23.124;2022-08-24T04:48:33;92928.09;;;19.18;100.00
10718;BME280;13513;42.700;23.124;2022-08-24T04:51:08;92926.85;;;19.26;100.00
10718;BME280;13513;42.700;23.124;2022-08-24T04:53:39;92932.36;;;19.46;100.00
10718;BME280;13513;42.700;23.124;2022-08-24T04:56:12;92925.40;;;19.58;100.00
10718;BME280;13513;42.700;23.124;2022-08-24T04:58:42;92919.63;;;19.65;100.00
10718;BME280;13513;42.700;23.124;2022-08-24T05:01:15;92917.77;;;19.63;100.00
10718;BME280;13513;42.700;23.124;2022-08-24T05:03:46;92919.29;;;19.55;100.00
10718;BME280;13513;42.700;23.124;2022-08-24T05:06:19;92915.45;;;19.84;100.00
10718;BME280;13513;42.700;23.124;2022-08-24T05:08:50;92914.55;;;19.88;100.00
10718;BME280;13513;42.700;23.124;2022-08-24T05:11:21;92918.19;;;20.39;100.00
10718;BME280;13513;42.700;23.124;2022-08-24T05:13:54;92910.03;;;20.74;100.00
10718;BME280;13513;42.700;23.124;2022-08-24T05:16:26;92901.55;;;20.92;100.00
10718;BME280;13513;42.700;23.124;2022-08-24T05:18:57;92902.36;;;21.01;100.00
10718;BME280;13513;42.700;23.124;2022-08-24T05:21:28;92895.69;;;21.37;100.00
10718;BME280;13513;42.700;23.124;2022-08-24T05:23:59;92895.90;;;21.58;100.00
10718;BME280;13513;42.700;23.124;2022-08-24T05:26:29;92894.05;;;21.75;100.00
10718;BME280;13513;42.700;23.124;2022-08-24T05:29:01;92900.02;;;21.92;100.00
10718;BME280;13513;42.700;23.124;2022-08-24T05:31:32;92890.77;;;21.87;100.00
10718;BME280;13513;42.700;23.124;2022-08-24T05:34:04;92899.34;;;21.69;100.00
10718;BME280;13513;42.700;23.124;2022-08-24T05:36:36;92894.41;;;21.54;100.00
10718;BME280;13513;42.700;23.124;2022-08-24T05:39:10;92887.33;;;21.75;100.00
10718;BME280;13513;42.700;23.124;2022-08-24T05:41:43;92882.28;;;22.16;100.00
10718;BME280;13513;42.700;23.124;2022-08-24T05:44:15;92876.82;;;22.36;100.00
10718;BME280;13513;42.700;23.124;2022-08-24T05:46:45;92871.52;;;22.08;100.00
10718;BME280;13513;42.700;23.124;2022-08-24T05:49:16;92870.74;;;22.64;100.00
10718;BME280;13513;42.700;23.124;2022-08-24T05:51:47;92865.75;;;22.69;100.00
10718;BME280;13513;42.700;23.124;2022-08-24T05:54:19;92871.98;;;22.98;100.00
10718;BME280;13513;42.700;23.124;2022-08-24T05:56:50;92871.90;;;23.01;98.05
10718;BME280;13513;42.700;23.124;2022-08-24T05:59:21;92870.32;;;23.00;100.00
10718;BME280;13513;42.700;23.124;2022-08-24T06:01:51;92867.41;;;23.13;99.62
10718;BME280;13513;42.700;23.124;2022-08-24T06:04:21;92867.80;;;23.18;93.15
10718;BME280;13513;42.700;23.124;2022-08-24T06:06:52;92869.09;;;22.89;98.58
10718;BME280;13513;42.700;23.124;2022-08-24T06:09:23;92872.19;;;22.62;100.00
10718;BME280;13513;42.700;23.124;2022-08-24T06:11:54;92866.52;;;23.24;93.83
10718;BME280;13513;42.700;23.124;2022-08-24T06:14:25;92862.66;;;23.34;96.40
10718;BME280;13513;42.700;23.124;2022-08-24T06:16:55;92865.48;;;23.81;95.73
10718;BME280;13513;42.700;23.124;2022-08-24T06:19:26;92868.77;;;24.21;94.16
10718;BME280;13513;42.700;23.124;2022-08-24T06:21:57;92865.65;;;24.31;86.12
10718;BME280;13513;42.700;23.124;2022-08-24T06:24:28;92863.86;;;24.29;84.36
10718;BME280;13513;42.700;23.124;2022-08-24T06:27:16;92864.18;;;24.28;85.71
10718;BME280;13513;42.700;23.124;2022-08-24T06:29:54;92857.98;;;24.27;89.73
10718;BME280;13513;42.700;23.124;2022-08-24T06:32:23;92858.45;;;24.29;88.35
10718;BME280;13513;42.700;23.124;2022-08-24T06:34:56;92858.31;;;23.85;87.06
10718;BME280;13513;42.700;23.124;2022-08-24T06:37:27;92853.98;;;23.78;87.39
10718;BME280;13513;42.700;23.124;2022-08-24T06:39:58;92861.18;;;23.07;92.10
10718;BME280;13513;42.700;23.124;2022-08-24T06:42:30;92854.48;;;23.51;92.50
10718;BME280;13513;42.700;23.124;2022-08-24T06:45:01;92859.98;;;23.98;93.69
10718;BME280;13513;42.700;23.124;2022-08-24T06:47:31;92865.13;;;23.82;89.42
10718;BME280;13513;42.700;23.124;2022-08-24T06:50:02;92859.16;;;24.12;87.99
10718;BME280;13513;42.700;23.124;2022-08-24T06:52:34;92862.29;;;24.34;85.01
10718;BME280;13513;42.700;23.124;2022-08-24T06:55:04;92864.12;;;24.42;89.13
10718;BME280;13513;42.700;23.124;2022-08-24T06:57:35;92876.63;;;24.20;85.48
10718;BME280;13513;42.700;23.124;2022-08-24T07:00:07;92877.52;;;24.39;85.08
10718;BME280;13513;42.700;23.124;2022-08-24T07:02:38;92877.47;;;24.86;85.37
10718;BME280;13513;42.700;23.124;2022-08-24T07:05:08;92880.35;;;25.25;81.59
10718;BME280;13513;42.700;23.124;2022-08-24T07:07:39;92877.78;;;25.53;80.98
10718;BME280;13513;42.700;23.124;2022-08-24T07:10:09;92889.50;;;25.69;78.16
10718;BME280;13513;42.700;23.124;2022-08-24T07:12:39;92890.42;;;25.97;74.62
10718;BME280;13513;42.700;23.124;2022-08-24T07:15:10;92890.77;;;25.71;76.42
10718;BME280;13513;42.700;23.124;2022-08-24T07:17:41;92893.55;;;24.50;79.48
10718;BME280;13513;42.700;23.124;2022-08-24T07:20:12;92898.16;;;24.08;84.73
10718;BME280;13513;42.700;23.124;2022-08-24T07:22:44;92886.50;;;24.16;84.76
10718;BME280;13513;42.700;23.124;2022-08-24T07:25:14;92898.09;;;23.53;89.85
10718;BME280;13513;42.700;23.124;2022-08-24T07:27:43;92900.67;;;23.35;90.03
10718;BME280;13513;42.700;23.124;2022-08-24T07:30:13;92904.39;;;23.51;91.21
10718;BME280;13513;42.700;23.124;2022-08-24T07:32:44;92906.70;;;23.61;91.75
10718;BME280;13513;42.700;23.124;2022-08-24T07:35:15;92904.10;;;23.58;90.50
10718;BME280;13513;42.700;23.124;2022-08-24T07:37:46;92902.47;;;23.37;93.86
10718;BME280;13513;42.700;23.124;2022-08-24T07:40:17;92901.22;;;23.34;91.20
10718;BME280;13513;42.700;23.124;2022-08-24T07:42:49;92904.00;;;23.61;91.19
10718;BME280;13513;42.700;23.124;2022-08-24T07:45:21;92899.34;;;23.84;89.41
10718;BME280;13513;42.700;23.124;2022-08-24T07:47:51;92903.92;;;23.92;88.59
10718;BME280;13513;42.700;23.124;2022-08-24T07:50:22;92903.41;;;24.19;86.95
10718;BME280;13513;42.700;23.124;2022-08-24T07:52:54;92901.62;;;24.64;86.84
10718;BME280;13513;42.700;23.124;2022-08-24T07:55:25;92894.16;;;24.94;81.67
10718;BME280;13513;42.700;23.124;2022-08-24T07:57:56;92895.50;;;25.56;77.12
10718;BME280;13513;42.700;23.124;2022-08-24T08:00:27;92891.08;;;25.82;74.97
10718;BME280;13513;42.700;23.124;2022-08-24T08:02:57;92891.54;;;25.60;75.49
10718;BME280;13513;42.700;23.124;2022-08-24T08:05:27;92885.78;;;25.31;76.39
10718;BME280;13513;42.700;23.124;2022-08-24T08:07:58;92887.59;;;25.39;74.16
10718;BME280;13513;42.700;23.124;2022-08-24T08:10:29;92883.53;;;25.75;74.48
10718;BME280;13513;42.700;23.124;2022-08-24T08:12:59;92891.54;;;25.60;72.28
10718;BME280;13513;42.700;23.124;2022-08-24T08:15:30;92886.47;;;25.34;75.63
10718;BME280;13513;42.700;23.124;2022-08-24T08:18:02;92878.41;;;25.14;75.17
10718;BME280;13513;42.700;23.124;2022-08-24T08:20:33;92879.64;;;25.16;78.13
10718;BME280;13513;42.700;23.124;2022-08-24T08:23:06;92884.09;;;25.33;79.20
10718;BME280;13513;42.700;23.124;2022-08-24T08:25:54;92880.03;;;25.45;76.94
10718;BME280;13513;42.700;23.124;2022-08-24T08:28:29;92877.00;;;25.34;77.20
10718;BME280;13513;42.700;23.124;2022-08-24T08:31:01;92879.34;;;26.02;76.49
10718;BME280;13513;42.700;23.124;2022-08-24T08:33:32;92880.28;;;25.58;73.95
10718;BME280;13513;42.700;23.124;2022-08-24T08:36:08;92874.63;;;25.63;74.43
10718;BME280;13513;42.700;23.124;2022-08-24T08:38:38;92872.25;;;25.43;74.46
10718;BME280;13513;42.700;23.124;2022-08-24T08:50:28;92864.55;;;24.65;76.95
10718;BME280;13513;42.700;23.124;2022-08-24T09:13:14;92877.06;;;26.10;70.82
10718;BME280;13513;42.700;23.124;2022-08-24T09:18:31;92885.91;;;25.59;70.87
10718;BME280;13513;42.700;23.124;2022-08-24T09:21:26;92881.74;;;25.67;76.53
10718;BME280;13513;42.700;23.124;2022-08-24T09:24:40;92885.31;;;26.07;70.32
10718;BME280;13513;42.700;23.124;2022-08-24T09:26:37;92888.69;;;25.92;68.46
10718;BME280;13513;42.700;23.124;2022-08-24T09:29:22;92881.77;;;26.25;68.09
10718;BME280;13513;42.700;23.124;2022-08-24T09:34:54;92866.41;;;28.62;57.23
10718;BME280;13513;42.700;23.124;2022-08-24T09:37:51;92869.58;;;28.29;56.78
10718;BME280;13513;42.700;23.124;2022-08-24T09:40:28;92868.12;;;27.97;53.62
10718;BME280;13513;42.700;23.124;2022-08-24T09:57:42;92843.51;;;25.33;68.74
10718;BME280;13513;42.700;23.124;2022-08-24T10:00:44;92840.09;;;25.06;70.15
10718;BME280;13513;42.700;23.124;2022-08-24T10:03:39;92842.80;;;25.72;67.12
10718;BME280;13513;42.700;23.124;2022-08-24T10:06:08;92827.38;;;25.60;66.18
10718;BME280;13513;42.700;23.124;2022-08-24T10:11:47;92817.42;;;25.94;63.33
10718;BME280;13513;42.700;23.124;2022-08-24T10:14:47;92810.83;;;26.01;66.04
10718;BME280;13513;42.700;23.124;2022-08-24T10:17:29;92812.22;;;25.83;65.42
10718;BME280;13513;42.700;23.124;2022-08-24T10:20:16;92810.02;;;26.07;66.53
10718;BME280;13513;42.700;23.124;2022-08-24T10:22:53;92807.91;;;25.82;65.27
10718;BME280;13513;42.700;23.124;2022-08-24T10:25:39;92808.55;;;26.09;68.08
10718;BME280;13513;42.700;23.124;2022-08-24T10:31:16;92806.16;;;26.14;59.92
10718;BME280;13513;42.700;23.124;2022-08-24T10:39:40;92809.52;;;25.95;63.65
10718;BME280;13513;42.700;23.124;2022-08-24T10:42:22;92806.71;;;26.19;56.72
10718;BME280;13513;42.700;23.124;2022-08-24T10:48:29;92807.67;;;26.33;60.72
10718;BME280;13513;42.700;23.124;2022-08-24T10:53:52;92809.60;;;25.93;67.30
10718;BME280;13513;42.700;23.124;2022-08-24T10:56:40;92812.84;;;26.10;67.44
10718;BME280;13513;42.700;23.124;2022-08-24T10:59:16;92808.02;;;26.04;60.92
10718;BME280;13513;42.700;23.124;2022-08-24T11:02:03;92810.45;;;26.42;57.79
10718;BME280;13513;42.700;23.124;2022-08-24T11:04:34;92812.72;;;26.13;56.82
10718;BME280;13513;42.700;23.124;2022-08-24T11:07:18;92810.01;;;25.67;57.61
10718;BME280;13513;42.700;23.124;2022-08-24T11:09:54;92806.62;;;25.58;62.26
10718;BME280;13513;42.700;23.124;2022-08-24T11:12:30;92807.30;;;25.55;58.67
10718;BME280;13513;42.700;23.124;2022-08-24T11:15:04;92802.41;;;25.85;61.69
10718;BME280;13513;42.700;23.124;2022-08-24T11:17:34;92808.80;;;25.92;58.09
10718;BME280;13513;42.700;23.124;2022-08-24T11:20:23;92803.62;;;26.27;58.67
10718;BME280;13513;42.700;23.124;2022-08-24T11:22:42;92796.97;;;26.52;58.26
10718;BME280;13513;42.700;23.124;2022-08-24T11:25:24;92788.58;;;26.63;58.64
10718;BME280;13513;42.700;23.124;2022-08-24T11:28:37;92789.64;;;26.74;59.66
10718;BME280;13513;42.700;23.124;2022-08-24T11:30:29;92788.34;;;26.84;62.26
10718;BME280;13513;42.700;23.124;2022-08-24T11:33:02;92782.73;;;27.08;61.88
10718;BME280;13513;42.700;23.124;2022-08-24T11:35:36;92790.22;;;27.20;62.97
10718;BME280;13513;42.700;23.124;2022-08-24T11:38:15;92787.05;;;27.24;60.83
10718;BME280;13513;42.700;23.124;2022-08-24T11:41:01;92788.89;;;27.45;58.76
10718;BME280;13513;42.700;23.124;2022-08-24T11:43:35;92784.89;;;27.08;59.24
10718;BME280;13513;42.700;23.124;2022-08-24T11:46:23;92789.94;;;27.10;62.42
10718;BME280;13513;42.700;23.124;2022-08-24T11:51:38;92789.38;;;26.79;59.18
10718;BME280;13513;42.700;23.124;2022-08-24T11:54:27;92784.19;;;26.96;58.51
10718;BME280;13513;42.700;23.124;2022-08-24T11:57:10;92782.98;;;27.24;62.85
10718;BME280;13513;42.700;23.124;2022-08-24T11:59:59;92788.45;;;27.68;57.28
10718;BME280;13513;42.700;23.124;2022-08-24T12:05:23;92789.55;;;28.17;53.96
10718;BME280;13513;42.700;23.124;2022-08-24T12:08:08;92782.81;;;27.67;60.06
10718;BME280;13513;42.700;23.124;2022-08-24T12:10:45;92787.95;;;27.07;60.75
10718;BME280;13513;42.700;23.124;2022-08-24T12:13:31;92787.80;;;26.94;60.46
10718;BME280;13513;42.700;23.124;2022-08-24T12:16:11;92784.70;;;26.86;59.02
10718;BME280;13513;42.700;23.124;2022-08-24T12:18:46;92778.31;;;26.94;61.17
10718;BME280;13513;42.700;23.124;2022-08-24T12:21:18;92765.20;;;27.27;56.98
10718;BME280;13513;42.700;23.124;2022-08-24T12:24:07;92761.20;;;27.90;57.89
10718;BME280;13513;42.700;23.124;2022-08-24T12:26:42;92763.41;;;27.84;57.66
10718;BME280;13513;42.700;23.124;2022-08-24T12:29:34;92762.57;;;28.18;57.25
10718;BME280;13513;42.700;23.124;2022-08-24T12:32:11;92763.28;;;28.15;56.48
10718;BME280;13513;42.700;23.124;2022-08-24T12:37:47;92762.64;;;27.18;59.25
10718;BME280;13513;42.700;23.124;2022-08-24T12:40:32;92760.41;;;27.55;57.29
10718;BME280;13513;42.700;23.124;2022-08-24T12:43:03;92760.48;;;27.83;57.70
10718;BME280;13513;42.700;23.124;2022-08-24T12:45:33;92767.29;;;27.33;57.65
10718;BME280;13513;42.700;23.124;2022-08-24T12:48:17;92771.27;;;27.14;60.55
10718;BME280;13513;42.700;23.124;2022-08-24T12:53:45;92767.47;;;26.56;60.97
10718;BME280;13513;42.700;23.124;2022-08-24T13:04:29;92764.52;;;26.34;60.78
10718;BME280;13513;42.700;23.124;2022-08-24T13:07:08;92761.27;;;26.50;60.34
10718;BME280;13513;42.700;23.124;2022-08-24T13:09:40;92754.81;;;26.54;62.97
10718;BME280;13513;42.700;23.124;2022-08-24T13:17:59;92755.34;;;25.95;66.40
10718;BME280;13513;42.700;23.124;2022-08-24T13:23:23;92763.91;;;25.85;68.00
10718;BME280;13513;42.700;23.124;2022-08-24T13:25:58;92776.02;;;25.76;70.93
10718;BME280;13513;42.700;23.124;2022-08-24T13:28:41;92784.72;;;25.69;71.94
10718;BME280;13513;42.700;23.124;2022-08-24T13:37:00;92774.87;;;25.83;70.74
10718;BME280;13513;42.700;23.124;2022-08-24T13:42:42;92784.29;;;25.67;71.80
10718;BME280;13513;42.700;23.124;2022-08-24T13:45:59;92795.36;;;25.32;72.53
10718;BME280;13513;42.700;23.124;2022-08-24T13:48:11;92786.42;;;24.72;76.38
10718;BME280;13513;42.700;23.124;2022-08-24T13:54:03;92799.33;;;24.22;78.85
10718;BME280;13513;42.700;23.124;2022-08-24T13:59:55;92804.09;;;23.98;82.62
10718;BME280;13513;42.700;23.124;2022-08-24T14:02:56;92798.77;;;23.96;84.20
10718;BME280;13513;42.700;23.124;2022-08-24T14:11:11;92781.47;;;24.35;79.97
10718;BME280;13513;42.700;23.124;2022-08-24T14:14:09;92789.55;;;24.23;80.51
10718;BME280;13513;42.700;23.124;2022-08-24T14:19:33;92781.24;;;24.67;75.56
10718;BME280;13513;42.700;23.124;2022-08-24T14:22:06;92785.03;;;24.54;79.45
10718;BME280;13513;42.700;23.124;2022-08-24T14:24:44;92792.42;;;24.39;77.94
10718;BME280;13513;42.700;23.124;2022-08-24T14:27:40;92796.77;;;24.25;77.70
10718;BME280;13513;42.700;23.124;2022-08-24T14:35:41;92801.15;;;24.30;78.65
10718;BME280;13513;42.700;23.124;2022-08-24T14:43:34;92779.25;;;25.12;71.63
10718;BME280;13513;42.700;23.124;2022-08-24T14:46:15;92786.34;;;25.04;71.84
10718;BME280;13513;42.700;23.124;2022-08-24T14:48:59;92786.56;;;24.75;74.85
10718;BME280;13513;42.700;23.124;2022-08-24T14:54:39;92785.53;;;24.80;72.48
10718;BME280;13513;42.700;23.124;2022-08-24T15:00:20;92788.06;;;24.58;78.53
10718;BME280;13513;42.700;23.124;2022-08-24T15:03:11;92788.88;;;24.65;73.64
10718;BME280;13513;42.700;23.124;2022-08-24T15:05:45;92788.55;;;24.66;74.69
10718;BME280;13513;42.700;23.124;2022-08-24T15:08:29;92787.64;;;24.62;75.10
10718;BME280;13513;42.700;23.124;2022-08-24T15:11:05;92778.66;;;24.64;78.09
10718;BME280;13513;42.700;23.124;2022-08-24T15:13:38;92775.27;;;24.61;75.51
10718;BME280;13513;42.700;23.124;2022-08-24T15:16:10;92780.00;;;24.64;77.13
10718;BME280;13513;42.700;23.124;2022-08-24T15:19:43;92784.64;;;24.43;77.26
10718;BME280;13513;42.700;23.124;2022-08-24T15:21:33;92781.39;;;24.44;78.05
10718;BME280;13513;42.700;23.124;2022-08-24T15:24:17;92792.11;;;24.52;77.61
10718;BME280;13513;42.700;23.124;2022-08-24T15:26:55;92798.06;;;24.52;77.21
10718;BME280;13513;42.700;23.124;2022-08-24T15:29:29;92804.11;;;24.63;76.90
10718;BME280;13513;42.700;23.124;2022-08-24T15:32:01;92800.55;;;24.57;76.78
10718;BME280;13513;42.700;23.124;2022-08-24T15:34:45;92800.16;;;24.67;78.43
10718;BME280;13513;42.700;23.124;2022-08-24T15:37:23;92804.38;;;24.50;78.97